ADDS METAR Data INFO
IDs: Format: Raw Decoded Include TAF

Data at: 0025 UTC 11 Dec 2017

KBIJ 100315Z AUTO 00000KT 10SM CLR 01/00 A3021 RMK AO2
KBIJ 100255Z AUTO 00000KT 10SM CLR 01/00 A3020 RMK AO2
KBIJ 100235Z AUTO 00000KT 10SM CLR 01/M01 A3020 RMK AO2
KBIJ 100215Z AUTO 00000KT 10SM CLR 02/00 A3019 RMK AO2
KBIJ 100155Z AUTO 00000KT 10SM CLR 03/M01 A3019 RMK AO2
KBIJ 100135Z AUTO 00000KT 10SM CLR 03/M01 A3018 RMK AO2
KBIJ 100115Z AUTO 00000KT 10SM CLR 03/M01 A3018 RMK AO2
KBIJ 100055Z AUTO 00000KT 10SM CLR 02/00 A3017 RMK AO2
KBIJ 100035Z AUTO 00000KT 10SM CLR 03/00 A3015 RMK AO2
KBIJ 100015Z AUTO 00000KT 10SM CLR 04/M01 A3014 RMK AO2
KBIJ 092355Z AUTO 00000KT 10SM CLR 04/M01 A3013 RMK AO2
KBIJ 092335Z AUTO 00000KT 10SM CLR 05/M01 A3012 RMK AO2
KBIJ 092315Z AUTO 00000KT 10SM CLR 05/M02 A3011 RMK AO2
KBIJ 092255Z AUTO 00000KT 10SM CLR 06/M02 A3010 RMK AO2
KBIJ 092235Z AUTO 28004KT 10SM CLR 07/M04 A3009 RMK AO2
KBIJ 092215Z AUTO 29006KT 10SM CLR 07/M05 A3008 RMK AO2
KBIJ 092155Z AUTO 27007KT 10SM CLR 08/M04 A3007 RMK AO2
KBIJ 092135Z AUTO 30004KT 10SM CLR 08/M03 A3006 RMK AO2
KBIJ 092115Z AUTO 30007KT 10SM CLR 09/M03 A3006 RMK AO2
KBIJ 092055Z AUTO 28007KT 240V300 10SM CLR 09/M03 A3005 RMK AO2
KBIJ 092035Z AUTO 28005KT 10SM CLR 09/M03 A3004 RMK AO2
KBIJ 092015Z AUTO 27009G17KT 10SM CLR 09/M03 A3005 RMK AO2
KBIJ 091955Z AUTO 32008G15KT 10SM CLR 09/M04 A3005 RMK AO2
KBIJ 091935Z AUTO 29008G15KT 260V330 10SM CLR 10/M04 A3006 RMK AO2
KBIJ 091915Z AUTO 29010KT 10SM CLR 09/M03 A3006 RMK AO2
KBIJ 091855Z AUTO 28008KT 10SM CLR 08/M03 A3006 RMK AO2
KBIJ 091835Z AUTO 30011G16KT 10SM CLR 08/M03 A3006 RMK AO2
KBIJ 091815Z AUTO 29008G14KT 10SM CLR 08/M03 A3006 RMK AO2
KBIJ 091755Z AUTO 30011G16KT 10SM CLR 08/M02 A3006 RMK AO2
KBIJ 091735Z AUTO 33006KT 300V010 10SM CLR 07/M02 A3006 RMK AO2
KBIJ 091715Z AUTO 32010G15KT 10SM CLR 07/M01 A3007 RMK AO2
KBIJ 091655Z AUTO 29008KT 10SM CLR 06/M01 A3007 RMK AO2
KBIJ 091635Z AUTO 30008G14KT 10SM CLR 06/00 A3007 RMK AO2
KBIJ 091615Z AUTO 31008G14KT 270V330 10SM SCT019 SCT025 06/01 A3008 RMK AO2
KBIJ 091555Z AUTO 29006KT 10SM SCT015 BKN020 05/01 A3008 RMK AO2
KBIJ 091535Z AUTO 28009KT 10SM BKN013 OVC020 04/01 A3008 RMK AO2
KBIJ 091515Z AUTO 30007KT 10SM OVC011 03/01 A3007 RMK AO2
KBIJ 091455Z AUTO 30009G14KT 10SM OVC011 03/01 A3006 RMK AO2
KBIJ 091435Z AUTO 28005KT 10SM OVC009 03/01 A3005 RMK AO2
KBIJ 091415Z AUTO 28004KT 7SM BKN009 BKN055 OVC075 03/01 A3004 RMK AO2 LTG DSNT E
KBIJ 091355Z AUTO 30004KT 10SM SCT007 BKN012 OVC060 03/01 A3004 RMK AO2
KBIJ 091335Z AUTO 28006KT 5SM RA BKN009 OVC014 03/01 A3005 RMK AO2
KBIJ 091315Z AUTO 29007KT 3SM -RA BKN009 OVC013 03/02 A3005 RMK AO2
KBIJ 091255Z AUTO 29005KT 10SM BKN009 OVC013 03/02 A3002 RMK AO2
KBIJ 091235Z AUTO 29005KT 10SM OVC007 03/02 A3002 RMK AO2